createdAt,value
2019-05-18T00:00:12.363Z,20.00
2019-05-18T00:01:16.163Z,23.00
2019-05-18T00:02:18.971Z,22.00
2019-05-18T00:03:22.670Z,22.00
2019-05-18T00:04:25.515Z,20.75
2019-05-18T00:05:28.874Z,21.50
2019-05-18T00:06:31.654Z,21.25
2019-05-18T00:07:35.160Z,20.75
2019-05-18T00:08:37.977Z,26.50
2019-05-18T00:09:41.636Z,23.50
2019-05-18T00:10:45.803Z,25.00
2019-05-18T00:11:49.215Z,22.00
2019-05-18T00:12:52.095Z,24.75
2019-05-18T00:13:55.882Z,23.00
2019-05-18T00:14:58.722Z,24.75
2019-05-18T00:16:02.333Z,23.00
2019-05-18T00:17:07.895Z,22.00
2019-05-18T00:18:10.590Z,21.25
2019-05-18T00:19:13.845Z,22.50
2019-05-18T00:20:19.551Z,27.00
2019-05-18T00:21:22.387Z,25.00
2019-05-18T00:22:26.598Z,21.00
2019-05-18T00:23:34.444Z,20.00
2019-05-18T00:24:38.317Z,19.00
2019-05-18T00:25:41.141Z,17.25
2019-05-18T00:26:46.736Z,16.50
2019-05-18T00:27:49.927Z,19.50
2019-05-18T00:28:53.604Z,16.25
2019-05-18T00:29:56.476Z,21.00
2019-05-18T00:30:59.884Z,16.50
2019-05-18T00:32:03.073Z,17.50
2019-05-18T00:33:06.535Z,18.00
2019-05-18T00:34:09.311Z,18.50
2019-05-18T00:35:13.066Z,16.50
2019-05-18T00:36:15.908Z,19.00
2019-05-18T00:37:21.739Z,15.50
2019-05-18T00:38:25.693Z,16.00
2019-05-18T00:39:29.154Z,20.50
2019-05-18T00:40:32.448Z,18.50
2019-05-18T00:41:36.178Z,16.00
2019-05-18T00:42:38.999Z,17.75
2019-05-18T00:43:42.437Z,18.25
2019-05-18T00:44:45.274Z,20.50
2019-05-18T00:45:48.602Z,16.75
2019-05-18T00:46:51.467Z,20.00
2019-05-18T00:47:55.166Z,22.75
2019-05-18T00:48:57.995Z,18.00
2019-05-18T00:50:01.450Z,18.00
2019-05-18T00:51:04.307Z,15.00
2019-05-18T00:52:07.771Z,17.75
2019-05-18T00:53:10.624Z,16.75
2019-05-18T00:54:14.256Z,17.00
2019-05-18T00:55:17.075Z,20.00
2019-05-18T00:56:20.429Z,21.00
2019-05-18T00:57:23.215Z,14.50
2019-05-18T00:58:26.676Z,20.50
2019-05-18T00:59:29.523Z,17.25
2019-05-18T01:00:37.559Z,17.75
2019-05-18T01:01:40.726Z,21.00
2019-05-18T01:02:45.465Z,22.75
2019-05-18T01:03:48.382Z,17.00
2019-05-18T01:04:51.789Z,18.00
2019-05-18T01:05:54.589Z,17.50
2019-05-18T01:07:01.454Z,14.50
2019-05-18T01:08:04.405Z,16.00
2019-05-18T01:09:08.206Z,15.50
2019-05-18T01:10:11.404Z,17.50
2019-05-18T01:11:15.201Z,14.50
2019-05-18T01:12:20.598Z,14.50
2019-05-18T01:13:24.223Z,16.25
2019-05-18T01:14:27.021Z,14.00
2019-05-18T01:15:30.613Z,15.50
2019-05-18T01:16:33.489Z,13.25
2019-05-18T01:17:36.957Z,16.50
2019-05-18T01:18:39.928Z,18.00
2019-05-18T01:19:43.568Z,17.50
2019-05-18T01:20:46.535Z,18.50
2019-05-18T01:21:50.006Z,16.00
2019-05-18T01:22:52.918Z,17.25
2019-05-18T01:23:56.355Z,21.25
2019-05-18T01:24:59.159Z,19.00
2019-05-18T01:26:02.834Z,17.25
2019-05-18T01:27:06.652Z,19.00
2019-05-18T01:28:10.092Z,17.75
2019-05-18T01:29:13.337Z,19.25
2019-05-18T01:30:16.681Z,18.00
2019-05-18T01:31:22.306Z,18.00
2019-05-18T01:32:27.898Z,18.75
2019-05-18T01:33:30.471Z,20.50
2019-05-18T01:34:34.209Z,21.00
2019-05-18T01:35:51.255Z,21.00
2019-05-18T01:36:54.602Z,21.50
2019-05-18T01:37:57.379Z,21.00
2019-05-18T01:39:01.373Z,22.00
2019-05-18T01:40:04.180Z,16.50
2019-05-18T01:41:07.647Z,19.75
2019-05-18T01:42:10.464Z,23.00
2019-05-18T01:43:13.969Z,18.75
2019-05-18T01:44:17.178Z,16.75
2019-05-18T01:45:24.746Z,16.50
2019-05-18T01:46:27.546Z,20.25
2019-05-18T01:47:30.946Z,20.75
2019-05-18T01:48:34.570Z,18.50
2019-05-18T01:49:41.911Z,18.75
2019-05-18T01:50:44.997Z,19.75
2019-05-18T01:51:50.271Z,18.25
2019-05-18T01:52:53.622Z,16.25
2019-05-18T01:53:57.094Z,20.25
2019-05-18T01:55:01.967Z,18.00
2019-05-18T01:56:05.141Z,16.50
2019-05-18T01:57:08.220Z,16.50
2019-05-18T01:58:19.668Z,16.00
2019-05-18T01:59:27.847Z,17.50
2019-05-18T02:00:31.172Z,20.25
2019-05-18T02:01:48.213Z,18.50
2019-05-18T02:02:45.655Z,18.75
2019-05-18T02:03:48.841Z,19.00
2019-05-18T02:04:52.221Z,16.50
2019-05-18T02:05:55.008Z,21.00
2019-05-18T02:06:59.341Z,19.75
2019-05-18T02:08:02.585Z,23.75
2019-05-18T02:09:07.354Z,24.75
2019-05-18T02:10:10.462Z,30.50
2019-05-18T02:11:13.835Z,29.25
2019-05-18T02:12:16.641Z,35.75
2019-05-18T02:13:20.470Z,36.00
2019-05-18T02:14:23.649Z,38.25
2019-05-18T02:15:28.169Z,33.50
2019-05-18T02:16:31.766Z,32.75
2019-05-18T02:17:35.439Z,28.75
2019-05-18T02:18:41.749Z,28.00
2019-05-18T02:19:45.210Z,23.50
2019-05-18T02:20:48.373Z,23.25
2019-05-18T02:21:52.074Z,20.50
2019-05-18T02:22:56.255Z,23.00
2019-05-18T02:23:59.644Z,22.00
2019-05-18T02:25:02.708Z,20.75
2019-05-18T02:26:06.238Z,20.25
2019-05-18T02:27:09.096Z,18.75
2019-05-18T02:28:12.625Z,18.00
2019-05-18T02:29:15.798Z,17.00
2019-05-18T02:30:19.149Z,16.00
2019-05-18T02:31:22.147Z,13.00
2019-05-18T02:32:25.944Z,13.75
2019-05-18T02:33:28.949Z,15.25
2019-05-18T02:34:33.590Z,14.25
2019-05-18T02:35:38.477Z,13.00
2019-05-18T02:36:41.876Z,13.75
2019-05-18T02:37:44.737Z,15.00
2019-05-18T02:38:50.053Z,12.50
2019-05-18T02:39:55.619Z,19.25
2019-05-18T02:40:59.339Z,14.25
2019-05-18T02:42:02.648Z,13.00
2019-05-18T02:43:05.996Z,11.50
2019-05-18T02:44:08.869Z,11.00
2019-05-18T02:45:12.297Z,13.00
2019-05-18T02:46:15.576Z,14.00
2019-05-18T02:47:19.332Z,10.75
2019-05-18T02:48:22.176Z,9.25
2019-05-18T02:49:25.528Z,9.75
2019-05-18T02:50:28.389Z,13.00
2019-05-18T02:51:31.765Z,13.25
2019-05-18T02:52:34.910Z,12.00
2019-05-18T02:53:38.827Z,11.00
2019-05-18T02:54:41.590Z,13.00
2019-05-18T02:55:46.866Z,12.50
2019-05-18T02:56:49.753Z,10.25
2019-05-18T02:57:53.159Z,9.75
2019-05-18T02:58:56.410Z,11.00
2019-05-18T03:00:03.202Z,11.00
2019-05-18T03:01:06.048Z,13.00
2019-05-18T03:02:10.116Z,11.50
2019-05-18T03:03:13.502Z,11.00
2019-05-18T03:04:20.099Z,10.00
2019-05-18T03:05:25.607Z,10.00
2019-05-18T03:06:31.865Z,11.00
2019-05-18T03:07:35.342Z,11.50
2019-05-18T03:08:40.911Z,11.00
2019-05-18T03:09:43.752Z,12.00
2019-05-18T03:10:47.129Z,10.50
2019-05-18T03:11:50.359Z,11.50
2019-05-18T03:12:54.331Z,11.50
2019-05-18T03:13:57.213Z,11.00
2019-05-18T03:15:00.548Z,8.75
2019-05-18T03:16:03.337Z,10.50
2019-05-18T03:17:06.855Z,11.00
2019-05-18T03:18:09.662Z,11.00
2019-05-18T03:19:13.437Z,10.00
2019-05-18T03:20:16.407Z,12.50
2019-05-18T03:21:19.817Z,8.50
2019-05-18T03:22:23.068Z,11.00
2019-05-18T03:23:26.560Z,9.75
2019-05-18T03:24:30.526Z,9.75
2019-05-18T03:25:34.170Z,10.00
2019-05-18T03:26:37.032Z,8.00
2019-05-18T03:27:40.516Z,10.00
2019-05-18T03:28:43.511Z,10.50
2019-05-18T03:29:46.865Z,12.50
2019-05-18T03:30:52.451Z,13.00
2019-05-18T03:31:56.137Z,13.25
2019-05-18T03:32:59.314Z,13.00
2019-05-18T03:34:02.784Z,16.00
2019-05-18T03:35:05.589Z,14.75
2019-05-18T03:36:09.471Z,13.00
2019-05-18T03:37:12.272Z,14.50
2019-05-18T03:38:15.942Z,13.00
2019-05-18T03:39:18.766Z,13.25
2019-05-18T03:40:22.164Z,11.00
2019-05-18T03:41:26.171Z,14.75
2019-05-18T03:42:31.598Z,13.50
2019-05-18T03:43:34.409Z,14.50
2019-05-18T03:44:38.194Z,13.75
2019-05-18T03:45:41.107Z,14.75
2019-05-18T03:46:44.621Z,13.50
2019-05-18T03:47:47.502Z,11.75
2019-05-18T03:48:50.983Z,13.25
2019-05-18T03:49:54.970Z,15.75
2019-05-18T03:50:59.138Z,13.75
2019-05-18T03:52:01.933Z,15.25
2019-05-18T03:53:05.467Z,17.00
2019-05-18T03:54:08.575Z,19.25
2019-05-18T03:55:11.936Z,20.25
2019-05-18T03:56:35.933Z,20.00
2019-05-18T03:57:39.190Z,21.75
2019-05-18T03:58:44.760Z,18.25
2019-05-18T03:59:47.640Z,18.00
2019-05-18T04:00:52.128Z,18.00
2019-05-18T04:01:54.940Z,18.00
2019-05-18T04:02:58.611Z,19.25
2019-05-18T04:04:01.517Z,18.00
2019-05-18T04:05:09.044Z,16.50
2019-05-18T04:06:11.866Z,16.50
2019-05-18T04:07:15.243Z,16.00
2019-05-18T04:08:18.063Z,16.00
2019-05-18T04:09:21.804Z,18.50
2019-05-18T04:10:24.637Z,18.00
2019-05-18T04:11:27.997Z,16.50
2019-05-18T04:12:30.831Z,16.00
2019-05-18T04:13:34.186Z,18.25
2019-05-18T04:14:37.210Z,18.00
2019-05-18T04:15:41.742Z,18.00
2019-05-18T04:16:44.552Z,17.00
2019-05-18T04:17:47.937Z,17.00
2019-05-18T04:18:53.060Z,15.75
2019-05-18T04:19:56.483Z,16.50
2019-05-18T04:20:59.369Z,17.50
2019-05-18T04:22:03.083Z,18.00
2019-05-18T04:23:05.932Z,17.00
2019-05-18T04:24:09.405Z,19.75
2019-05-18T04:25:12.237Z,17.75
2019-05-18T04:26:15.573Z,17.25
2019-05-18T04:27:19.798Z,17.50
2019-05-18T04:28:24.887Z,18.00
2019-05-18T04:29:27.745Z,15.50
2019-05-18T04:30:31.110Z,14.50
2019-05-18T04:31:33.999Z,17.00
2019-05-18T04:32:37.375Z,20.00
2019-05-18T04:33:40.258Z,17.75
2019-05-18T04:34:43.896Z,19.00
2019-05-18T04:35:46.701Z,16.50
2019-05-18T04:36:54.291Z,16.00
2019-05-18T04:37:57.120Z,18.50
2019-05-18T04:39:00.472Z,15.00
2019-05-18T04:40:03.318Z,18.75
2019-05-18T04:41:07.077Z,18.50
2019-05-18T04:42:10.037Z,19.25
2019-05-18T04:43:13.593Z,17.75
2019-05-18T04:44:16.707Z,18.50
2019-05-18T04:45:21.295Z,18.00
2019-05-18T04:46:24.307Z,18.00
2019-05-18T04:47:27.688Z,19.00
2019-05-18T04:48:32.159Z,17.75
2019-05-18T04:49:35.523Z,14.50
2019-05-18T04:50:39.569Z,19.50
2019-05-18T04:51:44.152Z,16.50
2019-05-18T04:52:46.996Z,15.50
2019-05-18T04:53:50.708Z,19.25
2019-05-18T04:54:56.437Z,13.50
2019-05-18T04:56:01.829Z,16.50
2019-05-18T04:57:04.503Z,19.50
2019-05-18T04:58:11.705Z,19.00
2019-05-18T04:59:15.268Z,16.75
2019-05-18T05:00:19.334Z,19.00
2019-05-18T05:01:22.171Z,17.75
2019-05-18T05:02:25.542Z,15.50
2019-05-18T05:03:28.527Z,21.00
2019-05-18T05:04:31.885Z,20.75
2019-05-18T05:05:34.769Z,21.25
2019-05-18T05:06:38.373Z,19.50
2019-05-18T05:07:41.206Z,18.50
2019-05-18T05:08:45.099Z,18.50
2019-05-18T05:09:48.018Z,19.50
2019-05-18T05:10:51.892Z,19.00
2019-05-18T05:11:54.738Z,20.75
2019-05-18T05:12:58.424Z,21.00
2019-05-18T05:14:01.409Z,19.75
2019-05-18T05:15:05.220Z,21.25
2019-05-18T05:16:13.083Z,20.25
2019-05-18T05:17:19.418Z,17.50
2019-05-18T05:18:25.747Z,18.50
2019-05-18T05:19:29.416Z,16.00
2019-05-18T05:20:32.314Z,18.00
2019-05-18T05:21:35.673Z,20.00
2019-05-18T05:22:44.546Z,17.00
2019-05-18T05:24:05.463Z,16.50
2019-05-18T05:25:27.302Z,14.50
2019-05-18T05:26:41.626Z,17.00
2019-05-18T05:27:46.202Z,17.75
2019-05-18T05:29:09.790Z,18.00
2019-05-18T05:43:50.906Z,21.00
2019-05-18T05:44:54.663Z,20.00
2019-05-18T05:45:57.581Z,23.00
2019-05-18T05:47:06.995Z,17.50
2019-05-18T05:48:10.166Z,18.50
2019-05-18T05:49:13.622Z,18.50
2019-05-18T05:50:34.134Z,21.00
2019-05-18T05:51:28.705Z,19.00
2019-05-18T05:52:31.521Z,22.75
2019-05-18T05:53:35.049Z,19.50
2019-05-18T05:54:40.481Z,21.75
2019-05-18T05:55:43.909Z,19.00
2019-05-18T05:56:52.795Z,23.50
2019-05-18T05:57:56.169Z,20.50
2019-05-18T05:58:59.070Z,20.00
2019-05-18T06:00:02.547Z,22.50
2019-05-18T06:01:06.727Z,22.75
2019-05-18T06:02:10.171Z,22.75
2019-05-18T06:03:13.459Z,22.00
2019-05-18T06:04:16.889Z,19.75
2019-05-18T06:05:19.839Z,21.00
2019-05-18T06:06:23.310Z,20.50
2019-05-18T06:07:26.613Z,21.00
2019-05-18T06:08:31.544Z,18.25
2019-05-18T06:09:37.467Z,20.25
2019-05-18T06:10:40.845Z,19.75
2019-05-18T06:11:46.294Z,20.50
2019-05-18T06:12:52.215Z,18.50
2019-05-18T06:13:55.466Z,21.00
2019-05-18T06:14:59.035Z,20.75
2019-05-18T06:16:01.959Z,18.00
2019-05-18T06:17:08.301Z,15.00
2019-05-18T06:18:10.020Z,16.50
2019-05-18T06:19:13.544Z,20.75
2019-05-18T06:20:16.851Z,18.50
2019-05-18T06:21:20.381Z,20.00
2019-05-18T06:22:23.228Z,20.50
2019-05-18T06:23:26.804Z,19.50
2019-05-18T06:24:30.189Z,19.75
2019-05-18T06:25:34.485Z,16.00
2019-05-18T06:26:38.852Z,19.00
2019-05-18T06:27:43.018Z,15.50
2019-05-18T06:28:46.049Z,19.00
2019-05-18T06:29:51.823Z,18.00
2019-05-18T06:30:54.493Z,18.25
2019-05-18T06:31:59.644Z,17.50
2019-05-18T06:33:02.774Z,16.50
2019-05-18T06:34:06.475Z,16.00
2019-05-18T06:35:11.152Z,20.00
2019-05-18T06:36:16.040Z,18.00
2019-05-18T06:37:19.061Z,19.50
2019-05-18T06:38:22.532Z,18.25
2019-05-18T06:39:26.066Z,18.25
2019-05-18T06:40:31.465Z,16.00
2019-05-18T06:41:35.088Z,15.25
2019-05-18T06:42:52.268Z,17.75
2019-05-18T06:43:58.245Z,14.00
2019-05-18T06:45:00.364Z,15.50
2019-05-18T06:46:03.753Z,16.25
2019-05-18T06:47:07.129Z,16.25
2019-05-18T06:48:10.203Z,16.75
2019-05-18T06:49:13.732Z,16.25
2019-05-18T06:50:18.741Z,17.25
2019-05-18T06:51:21.911Z,14.50
2019-05-18T06:52:24.882Z,15.00
2019-05-18T06:53:28.400Z,14.00
2019-05-18T06:54:35.503Z,16.25
2019-05-18T06:55:45.677Z,16.00
2019-05-18T06:56:51.867Z,14.75
2019-05-18T06:57:58.395Z,16.00
2019-05-18T06:59:06.393Z,17.00
2019-05-18T07:00:11.137Z,18.00
2019-05-18T07:01:17.158Z,22.25
2019-05-18T07:02:21.396Z,20.75
2019-05-18T07:03:24.561Z,22.50
2019-05-18T07:04:45.702Z,22.50
2019-05-18T07:05:49.914Z,15.00
2019-05-18T07:06:53.818Z,13.00
2019-05-18T07:07:56.815Z,12.75
2019-05-18T07:09:00.186Z,13.50
2019-05-18T07:10:06.243Z,13.50
2019-05-18T07:11:10.506Z,12.00
2019-05-18T07:12:13.342Z,15.75
2019-05-18T07:13:19.697Z,15.00
2019-05-18T07:14:25.767Z,13.50
2019-05-18T07:15:27.658Z,18.00
2019-05-18T07:16:37.319Z,15.25
2019-05-18T07:17:40.995Z,14.00
2019-05-18T07:18:43.900Z,13.50
2019-05-18T07:19:47.413Z,11.75
2019-05-18T07:20:50.328Z,13.00
2019-05-18T07:21:55.149Z,14.00
2019-05-18T07:22:57.950Z,12.25
2019-05-18T07:24:01.759Z,13.00
2019-05-18T07:25:04.609Z,11.75
2019-05-18T07:26:08.071Z,12.25
2019-05-18T07:27:11.003Z,12.50
2019-05-18T07:28:14.399Z,12.50
2019-05-18T07:29:20.162Z,13.50
2019-05-18T07:30:23.849Z,12.25
2019-05-18T07:31:29.831Z,13.50
2019-05-18T07:32:33.305Z,13.00
2019-05-18T07:33:36.163Z,13.25
2019-05-18T07:34:41.814Z,13.25
2019-05-18T07:35:45.320Z,11.75
2019-05-18T07:36:50.134Z,12.75
2019-05-18T07:37:53.020Z,11.25
2019-05-18T07:38:56.446Z,11.25
2019-05-18T07:40:02.377Z,9.75
2019-05-18T07:41:05.945Z,11.75
2019-05-18T07:42:08.796Z,11.25
2019-05-18T07:43:12.698Z,10.50
2019-05-18T07:44:15.570Z,9.50
2019-05-18T07:45:19.034Z,10.50
2019-05-18T07:46:21.836Z,11.00
2019-05-18T07:47:25.298Z,10.50
2019-05-18T07:48:45.748Z,10.25
2019-05-18T07:49:49.166Z,10.00
2019-05-18T07:50:52.015Z,10.00
2019-05-18T07:51:55.405Z,10.00
2019-05-18T07:52:58.700Z,10.00
2019-05-18T07:54:02.226Z,10.00
2019-05-18T07:55:05.527Z,10.00
2019-05-18T07:56:08.940Z,10.00
2019-05-18T07:57:11.793Z,10.00
2019-05-18T07:58:15.615Z,10.00
2019-05-18T07:59:19.990Z,11.00
2019-05-18T08:00:24.230Z,10.00
2019-05-18T08:01:27.492Z,9.75
2019-05-18T08:02:37.894Z,10.00
2019-05-18T08:03:40.661Z,9.75
2019-05-18T08:04:44.086Z,10.00
2019-05-18T08:05:51.650Z,10.00
2019-05-18T08:06:58.595Z,8.00
2019-05-18T08:08:04.485Z,9.25
2019-05-18T08:09:07.854Z,9.00
2019-05-18T08:10:11.785Z,9.00
2019-05-18T08:11:15.638Z,9.25
2019-05-18T08:12:19.606Z,9.25
2019-05-18T08:13:28.727Z,7.75
2019-05-18T08:14:33.995Z,6.00
2019-05-18T08:15:37.765Z,6.75
2019-05-18T08:16:40.666Z,6.50
2019-05-18T08:17:49.066Z,8.75
2019-05-18T08:18:51.919Z,7.50
2019-05-18T08:19:55.850Z,6.25
2019-05-18T08:21:00.911Z,7.00
2019-05-18T08:22:06.758Z,9.50
2019-05-18T08:23:09.710Z,8.75
2019-05-18T08:24:13.059Z,7.00
2019-05-18T08:25:31.934Z,7.00
2019-05-18T08:26:35.524Z,6.50
2019-05-18T08:27:42.812Z,7.25
2019-05-18T08:28:46.271Z,6.50
2019-05-18T08:29:49.267Z,7.75
2019-05-18T08:30:54.883Z,8.00
2019-05-18T08:31:58.145Z,6.25
2019-05-18T08:33:01.566Z,7.25
2019-05-18T08:34:07.267Z,5.75
2019-05-18T08:35:11.527Z,7.00
2019-05-18T08:36:14.409Z,6.50
2019-05-18T08:37:17.843Z,6.00
2019-05-18T08:38:21.074Z,7.25
2019-05-18T08:39:27.742Z,6.50
2019-05-18T08:40:30.720Z,7.00
2019-05-18T08:41:37.151Z,6.00
2019-05-18T08:42:43.018Z,5.75
2019-05-18T08:43:46.419Z,6.25
2019-05-18T08:44:53.874Z,7.00
2019-05-18T08:45:57.964Z,6.50
2019-05-18T08:47:01.637Z,5.50
2019-05-18T08:48:06.410Z,6.75
2019-05-18T08:49:14.305Z,7.50
2019-05-18T08:50:19.782Z,5.75
2019-05-18T08:51:24.516Z,5.25
2019-05-18T08:52:27.734Z,5.00
2019-05-18T08:53:30.688Z,6.00
2019-05-18T08:54:38.638Z,5.25
2019-05-18T08:55:43.671Z,5.25
2019-05-18T08:56:47.015Z,6.00
2019-05-18T08:57:52.249Z,6.00
2019-05-18T08:58:55.269Z,6.00
2019-05-18T09:00:00.183Z,6.00
2019-05-18T09:01:03.665Z,7.00
2019-05-18T09:02:06.481Z,6.50
2019-05-18T09:03:09.837Z,6.75
2019-05-18T09:04:12.966Z,6.50
2019-05-18T09:05:16.454Z,7.00
2019-05-18T09:06:19.384Z,5.50
2019-05-18T09:07:22.728Z,6.50
2019-05-18T09:08:26.835Z,7.00
2019-05-18T09:09:32.913Z,6.00
2019-05-18T09:10:36.538Z,7.25
2019-05-18T09:11:42.635Z,7.00
2019-05-18T09:12:45.437Z,4.75
2019-05-18T09:13:55.104Z,7.00
2019-05-18T09:15:00.410Z,8.25
2019-05-18T09:16:03.489Z,6.25
2019-05-18T09:17:06.450Z,6.75
2019-05-18T09:18:11.386Z,7.00
2019-05-18T09:19:14.412Z,7.00
2019-05-18T09:20:22.075Z,7.00
2019-05-18T09:21:24.951Z,6.00
2019-05-18T09:22:29.725Z,6.25
2019-05-18T09:23:37.021Z,6.00
2019-05-18T09:24:42.087Z,6.50
2019-05-18T09:25:50.442Z,6.00
2019-05-18T09:26:54.204Z,8.00
2019-05-18T09:28:06.186Z,6.25
2019-05-18T09:29:09.551Z,7.00
2019-05-18T09:30:13.029Z,6.50
2019-05-18T09:31:16.530Z,6.75
2019-05-18T09:32:20.527Z,6.00
2019-05-18T09:33:26.960Z,6.50
2019-05-18T09:34:29.691Z,5.00
2019-05-18T09:35:39.996Z,7.50
2019-05-18T09:36:45.172Z,5.00
2019-05-18T09:37:48.768Z,6.00
2019-05-18T09:38:51.755Z,7.00
2019-05-18T09:39:56.427Z,6.50
2019-05-18T09:41:01.823Z,7.00
2019-05-18T09:42:05.521Z,6.25
2019-05-18T09:43:11.380Z,6.00
2019-05-18T09:44:20.072Z,6.75
2019-05-18T09:45:26.024Z,6.00
2019-05-18T09:46:29.260Z,6.00
2019-05-18T09:47:34.766Z,7.00
2019-05-18T09:48:38.102Z,7.00
2019-05-18T09:49:41.805Z,5.00
2019-05-18T09:50:48.228Z,6.00
2019-05-18T09:51:51.186Z,7.00
2019-05-18T09:52:54.562Z,7.00
2019-05-18T09:54:00.445Z,7.00
2019-05-18T09:55:06.914Z,6.50
2019-05-18T09:56:13.257Z,6.75
2019-05-18T09:57:23.279Z,6.00
2019-05-18T09:58:37.831Z,6.00
2019-05-18T09:59:45.318Z,6.25
2019-05-18T10:00:48.216Z,4.00
2019-05-18T10:01:56.375Z,6.00
2019-05-18T10:02:59.492Z,7.00
2019-05-18T10:04:08.114Z,6.00
2019-05-18T10:05:13.442Z,5.00
2019-05-18T10:06:19.669Z,6.00
2019-05-18T10:07:28.876Z,6.50
2019-05-18T10:08:32.373Z,6.00
2019-05-18T10:09:39.424Z,6.00
2019-05-18T10:10:42.336Z,6.50
2019-05-18T10:11:46.513Z,7.00
2019-05-18T10:12:58.429Z,6.25
2019-05-18T10:14:02.859Z,6.50
2019-05-18T10:15:06.146Z,5.00
2019-05-18T10:16:14.232Z,7.00
2019-05-18T10:17:17.851Z,6.75
2019-05-18T10:18:21.919Z,5.50
2019-05-18T10:19:27.377Z,7.00
2019-05-18T10:20:30.108Z,6.00
2019-05-18T10:21:33.524Z,7.75
2019-05-18T10:22:36.847Z,6.00
2019-05-18T10:23:42.253Z,6.50
2019-05-18T10:24:45.263Z,7.00
2019-05-18T10:25:48.613Z,7.25
2019-05-18T10:26:51.501Z,7.75
2019-05-18T10:27:55.004Z,7.00
2019-05-18T10:28:57.787Z,7.00
2019-05-18T10:42:52.498Z,6.00
2019-05-18T10:43:57.225Z,6.00
2019-05-18T10:45:00.257Z,6.50
2019-05-18T10:46:04.164Z,5.00
2019-05-18T10:47:07.303Z,5.50
2019-05-18T10:48:11.107Z,5.50
2019-05-18T10:49:14.423Z,7.00
2019-05-18T10:50:17.866Z,5.50
2019-05-18T10:51:23.110Z,8.00
2019-05-18T10:52:29.143Z,7.00
2019-05-18T10:53:31.944Z,7.00
2019-05-18T10:54:39.340Z,6.00
2019-05-18T10:55:44.185Z,7.00
2019-05-18T10:56:47.282Z,8.75
2019-05-18T10:57:55.783Z,9.00
2019-05-18T10:58:59.207Z,7.50
2019-05-18T11:00:04.104Z,8.00
2019-05-18T11:01:10.241Z,6.75
2019-05-18T11:02:15.295Z,6.25
2019-05-18T11:03:18.637Z,7.50
2019-05-18T11:04:24.288Z,7.00
2019-05-18T11:05:27.794Z,7.00
2019-05-18T11:06:32.234Z,6.75
2019-05-18T11:07:37.110Z,7.00
2019-05-18T11:08:39.994Z,9.00
2019-05-18T11:09:45.043Z,7.75
2019-05-18T11:10:49.708Z,7.00
2019-05-18T11:11:54.376Z,6.00
2019-05-18T11:13:00.278Z,8.00
2019-05-18T11:14:04.425Z,7.75
2019-05-18T11:15:07.775Z,9.00
2019-05-18T11:16:11.288Z,7.75
2019-05-18T11:17:22.008Z,7.00
2019-05-18T11:18:25.372Z,7.00
2019-05-18T11:19:28.212Z,7.00
2019-05-18T11:20:34.987Z,7.25
2019-05-18T11:21:38.934Z,7.50
2019-05-18T11:22:42.302Z,7.00
2019-05-18T11:23:48.058Z,7.75
2019-05-18T11:24:51.563Z,7.25
2019-05-18T11:25:56.382Z,6.75
2019-05-18T11:27:00.005Z,7.50
2019-05-18T11:28:03.289Z,7.00
2019-05-18T11:29:06.711Z,7.00
2019-05-18T11:30:09.834Z,7.00
2019-05-18T11:31:13.548Z,7.00
2019-05-18T11:32:18.574Z,8.00
2019-05-18T11:33:22.675Z,7.00
2019-05-18T11:34:25.514Z,7.00
2019-05-18T11:35:31.249Z,6.50
2019-05-18T11:36:37.238Z,7.50
2019-05-18T11:37:40.658Z,8.00
2019-05-18T11:38:46.818Z,5.75
2019-05-18T11:39:50.227Z,7.00
2019-05-18T11:40:53.686Z,7.00
2019-05-18T11:41:58.231Z,7.50
2019-05-18T11:43:01.552Z,8.50
2019-05-18T11:44:10.782Z,7.00
2019-05-18T11:45:14.682Z,7.25
2019-05-18T11:46:33.467Z,7.25
2019-05-18T11:47:36.252Z,6.50
2019-05-18T11:48:39.829Z,7.00
2019-05-18T11:49:42.740Z,8.00
2019-05-18T11:50:47.579Z,8.75
2019-05-18T11:51:50.540Z,7.75
2019-05-18T11:52:53.973Z,7.00
2019-05-18T11:53:59.515Z,7.00
2019-05-18T11:55:04.506Z,8.25
2019-05-18T11:56:07.555Z,9.00
2019-05-18T11:57:14.773Z,7.50
2019-05-18T11:58:18.217Z,6.00
2019-05-18T11:59:24.048Z,7.00
2019-05-18T12:00:32.230Z,8.00
2019-05-18T12:01:33.244Z,7.25
2019-05-18T12:02:39.777Z,7.50
2019-05-18T12:03:46.381Z,6.00
2019-05-18T12:04:50.179Z,5.25
2019-05-18T12:06:02.861Z,7.00
2019-05-18T12:07:06.320Z,7.75
2019-05-18T12:08:09.829Z,8.25
2019-05-18T12:09:12.696Z,7.75
2019-05-18T12:10:18.329Z,7.50
2019-05-18T12:11:24.237Z,8.00
2019-05-18T12:12:29.046Z,7.00
2019-05-18T12:13:32.158Z,7.75
2019-05-18T12:14:37.880Z,8.00
2019-05-18T12:15:43.769Z,8.00
2019-05-18T12:16:47.624Z,6.50
2019-05-18T12:17:50.679Z,7.00
2019-05-18T12:18:57.748Z,7.50
2019-05-18T12:20:04.162Z,7.75
2019-05-18T12:21:07.979Z,7.75
2019-05-18T12:22:11.148Z,7.00
2019-05-18T12:23:14.908Z,7.50
2019-05-18T12:24:17.877Z,7.75
2019-05-18T12:25:21.360Z,7.75
2019-05-18T12:26:24.271Z,6.50
2019-05-18T12:27:28.415Z,6.25
2019-05-18T12:28:31.591Z,7.50
2019-05-18T12:29:35.388Z,8.00
2019-05-18T12:30:39.918Z,7.75
2019-05-18T12:31:43.595Z,7.00
2019-05-18T12:32:46.411Z,8.00
2019-05-18T12:33:50.015Z,8.00
2019-05-18T12:34:59.911Z,7.00
2019-05-18T12:36:03.370Z,7.25
2019-05-18T12:37:06.545Z,7.00
2019-05-18T12:38:16.395Z,7.00
2019-05-18T12:39:22.204Z,6.25
2019-05-18T12:40:28.050Z,8.25
2019-05-18T12:41:31.539Z,7.75
2019-05-18T12:42:39.427Z,9.25
2019-05-18T12:43:42.398Z,14.00
2019-05-18T12:44:51.564Z,9.00
2019-05-18T12:45:57.243Z,8.00
2019-05-18T12:47:03.244Z,7.00
2019-05-18T12:48:12.923Z,7.50
2019-05-18T12:49:19.118Z,6.50
2019-05-18T12:50:24.190Z,7.00
2019-05-18T12:51:27.566Z,7.50
2019-05-18T12:52:31.962Z,9.75
2019-05-18T12:53:35.315Z,8.00
2019-05-18T12:54:46.117Z,7.75
2019-05-18T12:55:44.650Z,6.50
2019-05-18T12:56:53.046Z,7.25
2019-05-18T12:57:56.358Z,7.00
2019-05-18T12:59:01.842Z,5.00
2019-05-18T13:00:07.672Z,7.00
2019-05-18T13:01:13.828Z,6.50
2019-05-18T13:02:20.299Z,6.75
2019-05-18T13:03:23.240Z,6.00
2019-05-18T13:04:26.633Z,5.75
2019-05-18T13:05:38.662Z,6.75
2019-05-18T13:06:43.508Z,9.00
2019-05-18T13:07:46.804Z,13.75
2019-05-18T13:08:50.209Z,11.00
2019-05-18T13:09:53.053Z,10.50
2019-05-18T13:10:56.482Z,7.00
2019-05-18T13:11:59.587Z,7.75
2019-05-18T13:13:03.954Z,6.75
2019-05-18T13:14:10.395Z,4.75
2019-05-18T13:15:15.556Z,9.75
2019-05-18T13:16:18.915Z,8.75
2019-05-18T13:17:25.014Z,5.25
2019-05-18T13:18:27.897Z,9.00
2019-05-18T13:19:31.273Z,7.50
2019-05-18T13:20:34.530Z,5.00
2019-05-18T13:21:37.795Z,5.00
2019-05-18T13:22:46.385Z,8.00
2019-05-18T13:23:49.778Z,6.00
2019-05-18T13:24:55.248Z,8.00
2019-05-18T13:26:02.312Z,5.25
2019-05-18T13:27:08.860Z,7.50
2019-05-18T13:28:12.965Z,7.50
2019-05-18T13:29:15.759Z,6.75
2019-05-18T13:30:21.903Z,6.00
2019-05-18T13:31:24.748Z,6.75
2019-05-18T13:32:32.717Z,7.00
2019-05-18T13:33:40.518Z,6.00
2019-05-18T13:34:46.713Z,6.00
2019-05-18T13:35:49.651Z,8.25
2019-05-18T13:36:53.018Z,7.25
2019-05-18T13:38:05.009Z,8.00
2019-05-18T13:39:08.349Z,8.00
2019-05-18T13:40:16.161Z,7.00
2019-05-18T13:41:19.389Z,5.00
2019-05-18T13:42:22.634Z,6.50
2019-05-18T13:43:26.005Z,8.00
2019-05-18T13:44:28.873Z,8.25
2019-05-18T13:45:32.366Z,8.50
2019-05-18T13:46:35.557Z,7.00
2019-05-18T13:47:39.858Z,7.25
2019-05-18T13:48:42.645Z,7.00
2019-05-18T13:49:46.087Z,8.00
2019-05-18T13:50:48.959Z,8.00
2019-05-18T13:51:52.445Z,7.50
2019-05-18T13:53:00.419Z,8.00
2019-05-18T13:54:24.226Z,7.00
2019-05-18T13:55:29.928Z,7.50
2019-05-18T13:56:35.047Z,6.00
2019-05-18T13:57:38.498Z,7.25
2019-05-18T13:58:44.388Z,7.25
2019-05-18T13:59:47.476Z,7.00
2019-05-18T14:00:55.433Z,8.25
2019-05-18T14:01:58.223Z,6.75
2019-05-18T14:03:01.659Z,6.75
2019-05-18T14:04:04.502Z,6.00
2019-05-18T14:05:11.415Z,7.25
2019-05-18T14:06:14.754Z,8.00
2019-05-18T14:07:18.216Z,7.00
2019-05-18T14:08:29.930Z,8.00
2019-05-18T14:09:33.326Z,7.50
2019-05-18T14:10:36.236Z,6.75
2019-05-18T14:11:40.145Z,8.25
2019-05-18T14:12:43.582Z,8.00
2019-05-18T14:13:47.363Z,7.75
2019-05-18T14:14:50.537Z,5.50
2019-05-18T14:15:53.978Z,7.00
2019-05-18T14:16:56.804Z,8.00
2019-05-18T14:18:02.312Z,8.00
2019-05-18T14:19:05.180Z,8.00
2019-05-18T14:20:08.607Z,8.50
2019-05-18T14:21:11.517Z,7.00
2019-05-18T14:22:15.021Z,7.25
2019-05-18T14:23:18.189Z,7.75
2019-05-18T14:24:27.089Z,8.00
2019-05-18T14:25:29.953Z,9.00
2019-05-18T14:26:33.328Z,8.00
2019-05-18T14:27:36.331Z,10.25
2019-05-18T14:28:39.751Z,10.00